Time;durP1;ratioP1;P1;durP2;ratioP2;P2;SDS_P1;SDS_P2;PMS_P1;PMS_P2;Temp;Humidity;BMP_temperature;BMP_pressure;BME280_temperature;BME280_humidity;BME280_pressure;Samples;Min_cycle;Max_cycle;Signal;HPM_P1;HPM_P2
2021/11/24 00:00:29;;;;;;;14.45;5.10;;;20.90;99.90;;;;;;5041819;28;20024;-69
2021/11/24 00:02:56;;;;;;;15.52;5.60;;;21.00;99.90;;;;;;5040642;28;20092;-69
2021/11/24 00:05:24;;;;;;;15.43;5.63;;;21.10;99.90;;;;;;5037286;28;20025;-69
2021/11/24 00:07:51;;;;;;;18.58;5.63;;;21.20;99.90;;;;;;5043432;28;20041;-68
2021/11/24 00:10:20;;;;;;;13.90;5.07;;;21.40;99.90;;;;;;5030184;28;20033;-69
2021/11/24 00:12:48;;;;;;;14.15;5.22;;;21.40;99.90;;;;;;5027476;28;20543;-68
2021/11/24 00:15:16;;;;;;;12.95;5.22;;;21.40;99.90;;;;;;5060092;28;20503;-68
2021/11/24 00:17:43;;;;;;;11.52;5.38;;;21.50;99.90;;;;;;5049576;28;20029;-69
2021/11/24 00:20:11;;;;;;;18.67;7.03;;;21.50;99.90;;;;;;5054225;28;20025;-69
2021/11/24 00:22:38;;;;;;;19.25;7.65;;;21.50;99.90;;;;;;5033934;28;20037;-69
2021/11/24 00:25:07;;;;;;;17.90;8.90;;;21.60;99.90;;;;;;5035080;28;20386;-69
2021/11/24 00:27:34;;;;;;;12.70;7.90;;;21.70;99.90;;;;;;5035933;28;20026;-69
2021/11/24 00:30:02;;;;;;;14.30;8.27;;;21.80;99.90;;;;;;5035550;28;20079;-69
2021/11/24 00:32:30;;;;;;;14.95;8.43;;;21.80;99.90;;;;;;5035094;28;20101;-69
2021/11/24 00:34:57;;;;;;;14.40;8.98;;;21.90;99.90;;;;;;5035391;28;20026;-69
2021/11/24 00:37:24;;;;;;;19.83;10.30;;;22.00;99.90;;;;;;5059114;28;20029;-69
2021/11/24 00:39:52;;;;;;;15.77;9.50;;;22.20;99.90;;;;;;5054967;28;20178;-69
2021/11/24 00:42:22;;;;;;;16.20;9.45;;;22.40;99.90;;;;;;5055979;28;20034;-70
2021/11/24 00:44:49;;;;;;;18.88;9.20;;;22.50;99.90;;;;;;5061710;28;20072;-70
2021/11/24 00:47:17;;;;;;;12.70;7.95;;;22.80;99.90;;;;;;5031072;28;20044;-70
2021/11/24 00:49:44;;;;;;;16.80;8.82;;;22.90;99.90;;;;;;5034646;28;20037;-70
2021/11/24 00:52:12;;;;;;;20.02;7.68;;;22.90;99.90;;;;;;5048246;28;20116;-70
2021/11/24 00:54:39;;;;;;;17.85;7.68;;;23.00;99.90;;;;;;5052101;28;20079;-70
2021/11/24 00:57:07;;;;;;;21.05;8.32;;;23.20;99.90;;;;;;5030916;28;20021;-70
2021/11/24 00:59:34;;;;;;;13.05;7.80;;;23.10;99.90;;;;;;5034022;28;20025;-70
2021/11/24 01:02:02;;;;;;;14.40;7.53;;;23.00;99.90;;;;;;5036838;28;20443;-70
2021/11/24 01:04:29;;;;;;;16.55;7.35;;;22.90;99.90;;;;;;5034771;28;20033;-70
2021/11/24 01:06:57;;;;;;;17.85;7.88;;;22.90;99.90;;;;;;5036293;28;20021;-70
2021/11/24 01:09:24;;;;;;;16.98;7.95;;;23.10;99.90;;;;;;5048189;28;20045;-70
2021/11/24 01:11:51;;;;;;;26.40;7.97;;;23.30;99.90;;;;;;5035551;28;20056;-69
2021/11/24 01:14:20;;;;;;;18.88;7.60;;;23.20;99.90;;;;;;5033605;28;20025;-70
2021/11/24 01:16:47;;;;;;;19.45;8.52;;;23.10;99.90;;;;;;5028075;28;20393;-69
2021/11/24 01:19:17;;;;;;;22.15;8.23;;;23.10;99.90;;;;;;5033633;28;20160;-69
2021/11/24 01:21:46;;;;;;;16.63;8.75;;;23.00;99.90;;;;;;5028762;28;20021;-70
2021/11/24 01:24:14;;;;;;;20.50;8.77;;;23.10;99.90;;;;;;5030607;28;20018;-70
2021/11/24 01:26:41;;;;;;;19.88;8.35;;;23.30;99.90;;;;;;5030997;28;20031;-70
2021/11/24 01:29:08;;;;;;;17.33;6.97;;;23.70;99.90;;;;;;5031118;28;20026;-70
2021/11/24 01:31:36;;;;;;;18.92;7.63;;;24.00;99.90;;;;;;5032643;28;20025;-71
2021/11/24 01:34:03;;;;;;;15.77;7.05;;;24.40;99.90;;;;;;5033757;28;20021;-70
2021/11/24 01:36:30;;;;;;;19.88;7.75;;;24.40;99.90;;;;;;5031012;28;20087;-70
2021/11/24 01:38:57;;;;;;;18.80;8.63;;;24.20;99.90;;;;;;5033714;28;20029;-71
2021/11/24 01:41:25;;;;;;;18.23;9.05;;;24.00;99.90;;;;;;5033171;28;20021;-70
2021/11/24 01:43:52;;;;;;;14.38;8.43;;;23.90;99.90;;;;;;5033069;28;20018;-71
2021/11/24 01:46:24;;;;;;;20.65;8.75;;;23.90;99.90;;;;;;5048022;28;20060;-71
2021/11/24 01:48:51;;;;;;;19.83;8.90;;;23.90;99.90;;;;;;5025804;28;20112;-70
2021/11/24 01:51:18;;;;;;;18.40;7.57;;;24.10;99.90;;;;;;5032442;28;20025;-70
2021/11/24 01:53:46;;;;;;;16.65;8.48;;;24.10;99.90;;;;;;5036461;28;20029;-71
2021/11/24 01:56:16;;;;;;;16.80;9.13;;;24.20;99.90;;;;;;5036003;28;20072;-71
2021/11/24 01:58:45;;;;;;;14.25;8.13;;;24.60;99.90;;;;;;5036229;28;20037;-70
2021/11/24 02:01:12;;;;;;;19.77;7.50;;;24.90;99.90;;;;;;5036472;28;20026;-71
2021/11/24 02:03:40;;;;;;;15.30;7.38;;;25.00;99.90;;;;;;5055614;28;20037;-71
2021/11/24 02:06:08;;;;;;;17.13;9.35;;;24.90;99.90;;;;;;5046946;28;20037;-70
2021/11/24 02:08:35;;;;;;;20.65;8.30;;;24.70;99.90;;;;;;5056344;28;20116;-70
2021/11/24 02:11:03;;;;;;;20.27;8.65;;;24.40;99.90;;;;;;5036856;28;20033;-71
2021/11/24 02:13:30;;;;;;;13.27;6.82;;;24.10;99.90;;;;;;5061537;28;20032;-70
2021/11/24 02:15:57;;;;;;;13.38;7.35;;;24.10;99.90;;;;;;5044849;28;20108;-71
2021/11/24 02:18:25;;;;;;;15.68;7.65;;;23.90;99.90;;;;;;5053622;28;20029;-71
2021/11/24 02:20:52;;;;;;;21.63;8.88;;;24.10;99.90;;;;;;5049849;28;20001;-71
2021/11/24 02:23:19;;;;;;;15.82;8.00;;;24.10;99.90;;;;;;5044295;28;20013;-72
2021/11/24 02:25:47;;;;;;;18.38;8.20;;;24.50;99.90;;;;;;5049800;28;20083;-71
2021/11/24 02:28:15;;;;;;;14.23;7.82;;;25.00;99.90;;;;;;5045818;28;20033;-70
2021/11/24 02:30:43;;;;;;;15.00;8.05;;;24.90;99.90;;;;;;5041896;28;20500;-71
2021/11/24 02:33:10;;;;;;;13.77;8.68;;;24.70;99.90;;;;;;5034779;28;20030;-70
2021/11/24 02:35:41;;;;;;;17.02;8.93;;;24.70;99.90;;;;;;5048469;28;20081;-71
2021/11/24 02:38:08;;;;;;;17.27;8.57;;;24.70;99.90;;;;;;5065163;28;20028;-71
2021/11/24 02:40:36;;;;;;;18.13;8.65;;;25.00;99.90;;;;;;5055789;28;20036;-69
2021/11/24 02:43:04;;;;;;;13.13;7.07;;;25.40;99.90;;;;;;5053467;28;20016;-69
2021/11/24 02:45:32;;;;;;;13.82;7.10;;;25.40;99.90;;;;;;5050990;28;20059;-70
2021/11/24 02:47:59;;;;;;;15.80;7.00;;;25.10;99.90;;;;;;5054958;28;20013;-69
2021/11/24 02:50:27;;;;;;;14.95;6.78;;;25.00;99.90;;;;;;5054690;28;20032;-69
2021/11/24 02:52:54;;;;;;;16.33;7.90;;;24.90;99.90;;;;;;5053772;28;20017;-69
2021/11/24 02:55:22;;;;;;;16.23;8.13;;;25.10;99.90;;;;;;5052886;28;20034;-70
2021/11/24 02:57:52;;;;;;;14.15;8.60;;;25.00;99.90;;;;;;5054056;28;20053;-70
2021/11/24 03:00:26;;;;;;;9.25;7.03;;;25.20;99.90;;;;;;5053772;28;20053;-70
2021/11/24 03:02:54;;;;;;;17.10;8.07;;;25.20;99.90;;;;;;5052695;28;20052;-70
2021/11/24 03:05:24;;;;;;;20.00;7.53;;;25.40;99.90;;;;;;5047118;28;20016;-70
2021/11/24 03:07:51;;;;;;;14.50;6.53;;;25.40;99.90;;;;;;5041440;28;20013;-70
2021/11/24 03:10:20;;;;;;;23.63;6.95;;;25.20;99.90;;;;;;5052051;28;20372;-70
2021/11/24 03:12:47;;;;;;;16.98;6.28;;;25.20;99.90;;;;;;5037391;28;20072;-71
2021/11/24 03:15:14;;;;;;;15.00;5.85;;;24.90;99.90;;;;;;5052885;28;20024;-70
2021/11/24 03:17:42;;;;;;;18.30;7.32;;;24.90;99.90;;;;;;5039096;28;20034;-70
2021/11/24 03:20:11;;;;;;;17.88;7.38;;;24.90;99.90;;;;;;5027518;28;20022;-70
2021/11/24 03:22:38;;;;;;;18.13;7.65;;;24.80;99.90;;;;;;5027649;28;20095;-70
2021/11/24 03:25:09;;;;;;;17.25;6.25;;;24.80;99.90;;;;;;5012592;28;20485;-70
2021/11/24 03:27:41;;;;;;;12.05;6.38;;;24.90;99.90;;;;;;5039048;28;20042;-70
2021/11/24 03:30:12;;;;;;;13.05;6.20;;;24.80;99.90;;;;;;5027492;28;20042;-70
2021/11/24 03:32:40;;;;;;;15.48;6.68;;;24.60;99.90;;;;;;5025246;28;20033;-70
2021/11/24 03:35:08;;;;;;;13.82;6.32;;;24.60;99.90;;;;;;5032747;28;20022;-70
2021/11/24 03:37:36;;;;;;;12.65;5.78;;;24.60;99.90;;;;;;5025245;28;20088;-70
2021/11/24 03:40:06;;;;;;;11.02;6.50;;;24.60;99.90;;;;;;5028460;28;20129;-70
2021/11/24 03:42:34;;;;;;;17.88;7.22;;;24.70;99.90;;;;;;5014738;28;20029;-70
2021/11/24 03:45:03;;;;;;;15.38;6.60;;;24.70;99.90;;;;;;5012669;28;20033;-71
2021/11/24 03:47:30;;;;;;;11.48;6.82;;;24.80;99.90;;;;;;5023259;28;20025;-70
2021/11/24 03:49:58;;;;;;;11.10;5.45;;;24.90;99.90;;;;;;5026482;28;20018;-71
2021/11/24 03:52:25;;;;;;;14.63;6.43;;;24.90;99.90;;;;;;5023844;28;20044;-69
2021/11/24 03:54:52;;;;;;;13.73;6.90;;;24.80;99.90;;;;;;5018633;28;20482;-72
2021/11/24 03:57:20;;;;;;;17.52;7.40;;;24.90;99.90;;;;;;5042393;28;20037;-70
2021/11/24 03:59:47;;;;;;;14.85;5.55;;;25.10;99.90;;;;;;5029680;28;20081;-70
2021/11/24 04:02:14;;;;;;;12.60;5.70;;;25.10;99.90;;;;;;5029932;28;20045;-70
2021/11/24 04:04:42;;;;;;;17.40;5.85;;;25.10;99.90;;;;;;5040256;28;20669;-68
2021/11/24 04:07:09;;;;;;;18.92;6.00;;;25.30;99.90;;;;;;5036580;28;20097;-69
2021/11/24 04:09:36;;;;;;;19.17;5.05;;;25.30;99.90;;;;;;5040048;28;20030;-70
2021/11/24 04:12:05;;;;;;;15.80;5.80;;;25.10;99.90;;;;;;5039633;28;20033;-70
2021/11/24 04:14:32;;;;;;;13.70;4.85;;;25.10;99.90;;;;;;5045374;28;20030;-70
2021/11/24 04:16:59;;;;;;;16.60;4.75;;;25.10;99.90;;;;;;5047551;28;20028;-70
2021/11/24 04:19:27;;;;;;;15.95;3.78;;;25.10;99.90;;;;;;5049858;28;20091;-70
2021/11/24 04:21:54;;;;;;;12.00;3.78;;;25.10;99.90;;;;;;5040596;28;20075;-71
2021/11/24 04:24:21;;;;;;;17.92;4.47;;;25.10;99.90;;;;;;5044382;28;20434;-70
2021/11/24 04:26:49;;;;;;;15.85;4.32;;;24.90;99.90;;;;;;5053370;28;20033;-71
2021/11/24 04:29:16;;;;;;;13.40;3.90;;;24.90;99.90;;;;;;5043016;28;20022;-70
2021/11/24 04:31:43;;;;;;;11.95;3.38;;;24.70;99.90;;;;;;5046941;28;20034;-71
2021/11/24 04:34:11;;;;;;;13.45;3.60;;;24.80;99.90;;;;;;5057623;28;20382;-68
2021/11/24 04:36:38;;;;;;;14.88;3.30;;;24.70;99.90;;;;;;5061665;28;20029;-67
2021/11/24 04:39:05;;;;;;;8.10;2.90;;;24.70;99.90;;;;;;5064377;28;20057;-68
2021/11/24 04:41:32;;;;;;;16.40;3.72;;;24.60;99.90;;;;;;5055024;28;20026;-68
2021/11/24 04:44:02;;;;;;;15.82;3.70;;;24.40;99.90;;;;;;5028488;28;20495;-69
2021/11/24 04:46:29;;;;;;;15.27;4.15;;;24.30;99.90;;;;;;5032510;28;20038;-70
2021/11/24 04:48:57;;;;;;;16.13;3.28;;;24.20;99.90;;;;;;5032637;28;20117;-69
2021/11/24 04:51:24;;;;;;;14.65;4.35;;;24.30;99.90;;;;;;5029975;28;20029;-69
2021/11/24 04:53:51;;;;;;;16.92;4.25;;;24.40;99.90;;;;;;5032311;28;20037;-69
2021/11/24 04:56:19;;;;;;;19.92;4.47;;;24.50;99.90;;;;;;5036622;28;20493;-69
2021/11/24 05:01:20;;;;;;;16.27;2.90;;;24.40;99.90;;;;;;5038150;28;20053;-69
2021/11/24 05:03:48;;;;;;;18.05;4.50;;;24.40;99.90;;;;;;5040831;28;20037;-68
2021/11/24 05:06:21;;;;;;;12.57;3.47;;;24.30;99.90;;;;;;5038872;28;20021;-71
2021/11/24 05:08:49;;;;;;;17.55;4.40;;;24.30;99.90;;;;;;5027498;28;20029;-69
2021/11/24 05:11:18;;;;;;;18.08;3.65;;;24.30;99.90;;;;;;5026746;28;20064;-69
2021/11/24 05:13:51;;;;;;;23.98;4.25;;;24.40;99.90;;;;;;5027478;28;20057;-69
2021/11/24 05:16:20;;;;;;;17.17;3.75;;;24.40;99.90;;;;;;5029779;28;20024;-69
2021/11/24 05:18:48;;;;;;;13.45;3.47;;;24.20;99.90;;;;;;5031971;28;20113;-69
2021/11/24 05:21:28;;;;;;;15.43;3.13;;;24.20;99.90;;;;;;5028959;28;20055;-69
2021/11/24 05:23:59;;;;;;;13.95;3.20;;;24.20;99.90;;;;;;5026972;28;20037;-68
2021/11/24 05:26:27;;;;;;;17.40;3.75;;;24.20;99.90;;;;;;5030509;28;20072;-68
2021/11/24 05:28:55;;;;;;;13.30;3.03;;;24.40;99.90;;;;;;5032441;28;20120;-69
2021/11/24 05:31:23;;;;;;;21.67;3.80;;;24.50;99.90;;;;;;5029824;28;20038;-68
2021/11/24 05:33:51;;;;;;;14.50;3.22;;;24.40;99.90;;;;;;5031252;28;20026;-68
2021/11/24 05:36:19;;;;;;;21.33;3.80;;;24.40;99.90;;;;;;5036063;28;20029;-69
2021/11/24 05:38:47;;;;;;;16.38;3.53;;;24.20;99.90;;;;;;5034560;28;20021;-70
2021/11/24 05:41:15;;;;;;;12.90;3.53;;;24.10;99.90;;;;;;5038591;28;20474;-69
2021/11/24 05:43:42;;;;;;;13.70;2.95;;;24.00;99.90;;;;;;5038594;28;20082;-69
2021/11/24 05:46:14;;;;;;;19.98;3.78;;;24.00;99.90;;;;;;5041286;28;20044;-69
2021/11/24 05:48:46;;;;;;;15.27;3.55;;;23.90;99.90;;;;;;5036839;28;20079;-69
2021/11/24 05:51:14;;;;;;;16.30;3.25;;;23.80;99.90;;;;;;5034945;28;20061;-69
2021/11/24 05:53:42;;;;;;;13.55;3.22;;;23.80;99.90;;;;;;5033745;28;20036;-69
2021/11/24 05:56:09;;;;;;;15.70;3.50;;;23.70;99.90;;;;;;5034346;28;20509;-70
2021/11/24 05:58:36;;;;;;;17.27;3.35;;;23.50;99.90;;;;;;5054783;28;20034;-68
2021/11/24 06:01:04;;;;;;;22.40;4.47;;;23.40;99.90;;;;;;5035134;28;20115;-69
2021/11/24 06:03:31;;;;;;;14.32;3.75;;;23.30;99.90;;;;;;5038229;28;20385;-70
2021/11/24 06:05:58;;;;;;;20.85;4.03;;;23.30;99.90;;;;;;5048876;28;20025;-69
2021/11/24 06:08:26;;;;;;;13.65;3.60;;;23.20;99.90;;;;;;5039460;28;20037;-69
2021/11/24 06:10:53;;;;;;;25.20;3.33;;;23.10;99.90;;;;;;5034430;28;20021;-69
2021/11/24 06:13:20;;;;;;;23.95;4.35;;;23.10;99.90;;;;;;5037654;28;20036;-71
2021/11/24 06:15:48;;;;;;;21.27;3.72;;;23.10;99.90;;;;;;5031766;28;20052;-69
2021/11/24 06:18:15;;;;;;;21.20;4.65;;;23.00;99.90;;;;;;5030239;28;20406;-69
2021/11/24 06:20:43;;;;;;;22.90;4.20;;;23.00;99.90;;;;;;5034713;28;20040;-71
2021/11/24 06:23:11;;;;;;;18.35;3.88;;;23.00;99.90;;;;;;5034955;28;20037;-70
2021/11/24 06:25:38;;;;;;;19.88;4.07;;;22.90;99.90;;;;;;5035679;28;20072;-69
2021/11/24 06:28:06;;;;;;;14.95;3.50;;;22.90;99.90;;;;;;5029512;28;20041;-70
2021/11/24 06:30:34;;;;;;;26.15;4.43;;;22.90;99.90;;;;;;5033192;28;20488;-72
2021/11/24 06:33:02;;;;;;;19.42;4.38;;;22.80;99.90;;;;;;5032772;28;20080;-70
2021/11/24 06:35:29;;;;;;;17.90;3.65;;;22.70;99.90;;;;;;5046060;28;20493;-70
2021/11/24 06:37:56;;;;;;;19.98;5.03;;;22.70;99.90;;;;;;5031728;28;20092;-70
2021/11/24 06:40:24;;;;;;;19.98;4.05;;;22.70;99.90;;;;;;5033486;28;20112;-69
2021/11/24 06:42:52;;;;;;;21.95;3.47;;;22.70;99.90;;;;;;5020476;28;20037;-70
2021/11/24 06:45:20;;;;;;;17.90;3.60;;;22.70;99.90;;;;;;5013357;28;20055;-70
2021/11/24 06:47:48;;;;;;;21.20;4.18;;;22.70;99.90;;;;;;5025421;28;20029;-70
2021/11/24 06:50:16;;;;;;;22.00;4.28;;;22.60;99.90;;;;;;5031353;28;20022;-71
2021/11/24 06:52:43;;;;;;;20.83;4.60;;;22.60;99.90;;;;;;5027689;28;20037;-70
2021/11/24 06:55:11;;;;;;;15.38;4.18;;;22.60;99.90;;;;;;5013561;28;20022;-69
2021/11/24 06:57:41;;;;;;;18.65;4.20;;;22.50;99.90;;;;;;5035496;28;20021;-69
2021/11/24 07:00:10;;;;;;;20.67;4.85;;;22.50;99.90;;;;;;5068230;28;20033;-71
2021/11/24 07:02:37;;;;;;;19.27;5.25;;;22.50;99.90;;;;;;5041415;28;20036;-69
2021/11/24 07:05:06;;;;;;;21.52;4.55;;;22.40;99.90;;;;;;5032298;28;20049;-70
2021/11/24 07:07:33;;;;;;;20.38;4.28;;;22.40;99.90;;;;;;5041652;28;20032;-70
2021/11/24 07:10:00;;;;;;;19.95;4.55;;;22.20;99.90;;;;;;5052958;28;20104;-72
2021/11/24 07:12:27;;;;;;;20.65;5.10;;;22.20;99.90;;;;;;5035275;28;20029;-71
2021/11/24 07:14:56;;;;;;;15.25;4.65;;;22.20;99.90;;;;;;5033363;28;20026;-70
2021/11/24 07:17:24;;;;;;;23.83;5.25;;;22.20;99.90;;;;;;5026573;28;20445;-70
2021/11/24 07:19:52;;;;;;;13.80;3.83;;;22.10;99.90;;;;;;5016125;28;20017;-71
2021/11/24 07:22:20;;;;;;;23.45;4.07;;;22.10;99.90;;;;;;5033919;28;20021;-71
2021/11/24 07:24:47;;;;;;;28.65;5.00;;;22.10;99.90;;;;;;5052698;28;20032;-70
2021/11/24 07:27:14;;;;;;;19.95;5.40;;;22.00;99.90;;;;;;5043336;28;20045;-70
2021/11/24 07:29:42;;;;;;;23.45;5.63;;;22.00;99.90;;;;;;5032633;28;20041;-71
2021/11/24 07:32:09;;;;;;;21.23;5.72;;;22.00;99.90;;;;;;5038478;28;20171;-69
2021/11/24 07:34:36;;;;;;;25.42;4.95;;;21.90;99.90;;;;;;5052640;28;20025;-69
2021/11/24 07:37:04;;;;;;;21.90;5.53;;;21.90;99.90;;;;;;5058782;28;20025;-70
2021/11/24 07:39:32;;;;;;;23.25;5.25;;;21.90;99.90;;;;;;5012621;28;20025;-69
2021/11/24 07:41:59;;;;;;;22.20;4.85;;;21.80;99.90;;;;;;5023862;28;20023;-70
2021/11/24 07:44:27;;;;;;;25.23;6.75;;;21.90;99.90;;;;;;5052108;28;20408;-70
2021/11/24 07:46:54;;;;;;;26.63;5.30;;;21.80;99.90;;;;;;5049322;28;20056;-70
2021/11/24 07:49:21;;;;;;;20.92;5.35;;;21.80;99.90;;;;;;5049800;28;20040;-70
2021/11/24 07:51:48;;;;;;;23.52;5.07;;;21.80;99.90;;;;;;5050414;28;20021;-70
2021/11/24 07:54:16;;;;;;;26.95;5.15;;;21.70;99.90;;;;;;5036228;28;20026;-71
2021/11/24 07:56:43;;;;;;;20.02;5.05;;;21.70;99.90;;;;;;5038085;28;20037;-70
2021/11/24 07:59:10;;;;;;;25.20;5.55;;;21.70;99.90;;;;;;5056422;28;20029;-70
2021/11/24 08:01:38;;;;;;;22.27;6.10;;;21.70;99.90;;;;;;5051795;28;20110;-71
2021/11/24 08:04:05;;;;;;;26.98;6.63;;;21.60;99.90;;;;;;5034628;28;20053;-70
2021/11/24 08:06:32;;;;;;;27.40;6.07;;;21.60;99.90;;;;;;5020053;28;20657;-70
2021/11/24 08:09:00;;;;;;;21.55;4.72;;;21.60;99.90;;;;;;5071858;28;20025;-70
2021/11/24 08:11:27;;;;;;;25.40;5.88;;;21.60;99.90;;;;;;5039860;28;20398;-70
2021/11/24 08:13:54;;;;;;;27.55;5.90;;;21.60;99.90;;;;;;5034555;28;20389;-71
2021/11/24 08:16:22;;;;;;;31.90;6.15;;;21.50;99.90;;;;;;5034884;28;20018;-71
2021/11/24 08:18:49;;;;;;;21.50;6.18;;;21.50;99.90;;;;;;5016121;28;20447;-70
2021/11/24 08:21:16;;;;;;;27.58;6.15;;;21.50;99.90;;;;;;5016287;28;20474;-70
2021/11/24 08:23:44;;;;;;;28.52;6.03;;;21.40;99.90;;;;;;5036229;28;20034;-70
2021/11/24 08:26:11;;;;;;;26.55;6.65;;;21.50;99.90;;;;;;5037224;28;20109;-70
2021/11/24 08:28:38;;;;;;;25.10;5.38;;;21.40;99.90;;;;;;5052777;28;20499;-69
2021/11/24 08:31:06;;;;;;;24.80;6.93;;;21.30;99.90;;;;;;5051233;28;20028;-70
2021/11/24 08:33:33;;;;;;;32.03;7.15;;;21.30;99.90;;;;;;5034320;28;20037;-69
2021/11/24 08:36:00;;;;;;;34.10;7.13;;;21.30;99.90;;;;;;5035381;28;20025;-70
2021/11/24 08:38:28;;;;;;;28.67;6.07;;;21.20;99.90;;;;;;5067431;28;20036;-69
2021/11/24 08:40:55;;;;;;;25.23;7.03;;;21.20;99.90;;;;;;5055474;28;20086;-69
2021/11/24 08:43:22;;;;;;;26.95;5.72;;;21.20;99.90;;;;;;5036442;28;20029;-71
2021/11/24 08:45:50;;;;;;;34.20;6.65;;;21.20;99.90;;;;;;5035517;28;20049;-69
2021/11/24 08:48:19;;;;;;;27.02;6.15;;;21.10;99.90;;;;;;5034321;28;20037;-68
2021/11/24 08:50:47;;;;;;;37.40;8.27;;;21.10;99.90;;;;;;5035277;28;20105;-69
2021/11/24 08:53:14;;;;;;;22.23;6.13;;;21.10;99.90;;;;;;5050045;28;20413;-69
2021/11/24 08:55:41;;;;;;;26.17;6.35;;;21.20;99.90;;;;;;5055416;28;20047;-69
2021/11/24 08:58:09;;;;;;;27.90;6.25;;;21.20;99.90;;;;;;5037988;28;20095;-69
2021/11/24 09:00:36;;;;;;;31.05;6.68;;;21.10;99.90;;;;;;5032677;28;20029;-69
2021/11/24 09:03:05;;;;;;;22.65;6.22;;;21.20;99.90;;;;;;5033468;28;20038;-69
2021/11/24 09:05:33;;;;;;;25.50;6.40;;;21.10;99.90;;;;;;5032871;28;20039;-69
2021/11/24 09:08:00;;;;;;;28.55;6.05;;;21.20;99.90;;;;;;5032541;28;20392;-69
2021/11/24 09:10:27;;;;;;;36.70;7.55;;;21.10;99.90;;;;;;5034303;28;20028;-69
2021/11/24 09:12:55;;;;;;;30.58;6.70;;;21.10;99.90;;;;;;5033801;28;20034;-69
2021/11/24 09:15:23;;;;;;;30.52;7.22;;;21.10;99.90;;;;;;5034817;28;20466;-68
2021/11/24 09:17:50;;;;;;;26.80;6.13;;;21.10;99.90;;;;;;5034423;28;20052;-69
2021/11/24 09:20:19;;;;;;;35.13;7.20;;;21.00;99.90;;;;;;5034702;28;20418;-68
2021/11/24 09:22:48;;;;;;;25.60;6.25;;;21.00;99.90;;;;;;5033802;28;20034;-68
2021/11/24 09:25:20;;;;;;;28.80;7.40;;;21.00;99.90;;;;;;5032752;28;20095;-68
2021/11/24 09:28:00;;;;;;;29.58;6.80;;;20.90;99.90;;;;;;5029783;28;20038;-68
2021/11/24 09:30:29;;;;;;;33.63;7.13;;;20.90;99.90;;;;;;5018803;28;20025;-67
2021/11/24 09:32:56;;;;;;;29.85;8.15;;;20.90;99.90;;;;;;5047153;28;20041;-68
2021/11/24 09:35:23;;;;;;;27.27;7.22;;;20.90;99.90;;;;;;5044776;28;20029;-67
2021/11/24 09:37:51;;;;;;;30.90;7.28;;;20.90;99.90;;;;;;5029555;28;20525;-68
2021/11/24 09:40:18;;;;;;;28.30;7.63;;;20.80;99.90;;;;;;5037590;28;20551;-68
2021/11/24 09:42:47;;;;;;;28.25;8.07;;;20.80;99.90;;;;;;5034857;28;20084;-68
2021/11/24 09:45:17;;;;;;;25.25;5.68;;;20.80;99.90;;;;;;5038033;28;20053;-68
2021/11/24 09:47:50;;;;;;;21.00;6.53;;;20.80;99.90;;;;;;5025995;28;20057;-68
2021/11/24 09:50:22;;;;;;;24.55;6.93;;;20.80;99.90;;;;;;5019182;28;20037;-69
2021/11/24 09:52:51;;;;;;;25.55;7.32;;;20.80;99.90;;;;;;5043782;28;20033;-68
2021/11/24 09:55:20;;;;;;;27.30;6.88;;;20.80;99.90;;;;;;5058043;28;20076;-68
2021/11/24 09:57:48;;;;;;;25.38;7.03;;;20.70;99.90;;;;;;5046292;28;20022;-68
2021/11/24 10:00:16;;;;;;;28.27;7.28;;;20.70;99.90;;;;;;5037909;28;20029;-68
2021/11/24 10:02:44;;;;;;;26.35;6.53;;;20.70;99.90;;;;;;5035871;28;20021;-68
2021/11/24 10:05:11;;;;;;;32.83;7.82;;;20.70;99.90;;;;;;5037962;28;20482;-68
2021/11/24 10:07:42;;;;;;;36.35;8.07;;;20.70;99.90;;;;;;5043086;28;20051;-68
2021/11/24 10:10:09;;;;;;;27.63;7.05;;;20.70;99.90;;;;;;5061798;28;20036;-68
2021/11/24 10:12:37;;;;;;;31.90;7.30;;;20.60;99.90;;;;;;5048376;28;20070;-68
2021/11/24 10:15:09;;;;;;;30.42;6.65;;;20.60;99.90;;;;;;5038181;28;20097;-68
2021/11/24 10:17:38;;;;;;;39.47;7.35;;;20.60;99.90;;;;;;5037921;28;20017;-68
2021/11/24 10:20:12;;;;;;;36.97;8.10;;;20.70;99.90;;;;;;5033086;28;20478;-68
2021/11/24 10:22:41;;;;;;;;;;;20.60;99.90;;;;;;5045348;28;20028;-68
2021/11/24 10:25:14;;;;;;;41.47;8.00;;;20.60;99.90;;;;;;5041295;28;19908;-68
2021/11/24 10:27:45;;;;;;;28.45;7.70;;;20.60;99.90;;;;;;5044545;28;20048;-68
2021/11/24 10:30:21;;;;;;;33.72;8.35;;;20.60;99.90;;;;;;5049601;28;20389;-68
2021/11/24 10:32:49;;;;;;;30.55;8.15;;;20.60;99.90;;;;;;5038620;28;20686;-69
2021/11/24 10:35:30;;;;;;;35.03;7.55;;;20.60;99.90;;;;;;5047860;28;20939;-68
2021/11/24 10:38:18;;;;;;;37.42;8.40;;;20.60;99.90;;;;;;5037212;28;20389;-68
2021/11/24 10:40:47;;;;;;;36.67;7.78;;;20.60;99.90;;;;;;5040003;28;20022;-68
2021/11/24 10:43:17;;;;;;;33.08;9.23;;;20.60;99.90;;;;;;5038219;28;20032;-69
2021/11/24 10:45:57;;;;;;;28.23;7.18;;;20.50;99.90;;;;;;5042578;28;20115;-68
2021/11/24 10:48:29;;;;;;;34.83;8.52;;;20.60;99.90;;;;;;5057447;28;20045;-69
2021/11/24 10:51:00;;;;;;;39.92;8.75;;;20.50;99.90;;;;;;5051819;28;20264;-69
2021/11/24 10:53:28;;;;;;;39.80;7.50;;;20.50;99.90;;;;;;5049878;28;20095;-68
2021/11/24 10:56:07;;;;;;;39.53;8.95;;;20.50;99.90;;;;;;5040585;28;20029;-69
2021/11/24 10:58:39;;;;;;;27.90;8.05;;;20.60;99.90;;;;;;5034626;28;20053;-68
2021/11/24 11:01:06;;;;;;;27.42;7.88;;;20.50;99.90;;;;;;5035742;28;20094;-69
2021/11/24 11:03:42;;;;;;;28.13;8.05;;;20.50;99.90;;;;;;5043795;28;20018;-69
2021/11/24 11:06:10;;;;;;;36.25;7.55;;;20.60;99.90;;;;;;5034457;28;20866;-69
2021/11/24 11:08:37;;;;;;;34.63;7.25;;;20.50;99.90;;;;;;5034237;28;20029;-69
2021/11/24 11:11:05;;;;;;;29.55;7.65;;;20.50;99.90;;;;;;5039782;28;20033;-69
2021/11/24 11:13:33;;;;;;;35.13;8.57;;;20.50;99.90;;;;;;5044224;28;20444;-69
2021/11/24 11:16:01;;;;;;;26.73;7.18;;;20.50;99.90;;;;;;5041381;28;20021;-69
2021/11/24 11:18:35;;;;;;;38.35;8.50;;;20.50;99.90;;;;;;5031027;28;20037;-69
2021/11/24 11:21:11;;;;;;;32.35;7.40;;;20.40;99.90;;;;;;5040992;28;20048;-69
2021/11/24 11:23:48;;;;;;;29.35;6.70;;;20.50;99.90;;;;;;5044424;28;20026;-69
2021/11/24 11:26:19;;;;;;;31.38;7.45;;;20.50;99.90;;;;;;5069037;28;20090;-69
2021/11/24 11:28:54;;;;;;;30.70;7.68;;;20.50;99.90;;;;;;5039935;28;20373;-69
2021/11/24 11:31:28;;;;;;;30.92;7.00;;;20.50;99.90;;;;;;5029421;28;20030;-69
2021/11/24 11:33:59;;;;;;;26.83;8.10;;;20.50;99.90;;;;;;5037539;28;20029;-69
2021/11/24 11:36:28;;;;;;;28.73;7.10;;;20.50;99.90;;;;;;5039382;28;20050;-69
2021/11/24 11:38:58;;;;;;;29.52;7.07;;;20.50;99.90;;;;;;5060715;28;20481;-69
2021/11/24 11:41:32;;;;;;;31.23;6.75;;;20.50;99.90;;;;;;5044032;28;20024;-69
2021/11/24 11:44:00;;;;;;;36.20;7.55;;;20.50;99.90;;;;;;5039777;28;20026;-69
2021/11/24 11:46:32;;;;;;;36.25;7.50;;;20.40;99.90;;;;;;5036017;28;20044;-68
2021/11/24 11:49:11;;;;;;;30.23;6.55;;;20.50;99.90;;;;;;5047507;28;20037;-69
2021/11/24 11:51:41;;;;;;;39.28;8.35;;;20.50;99.90;;;;;;5056124;28;20276;-69
2021/11/24 11:54:11;;;;;;;29.30;8.10;;;20.40;99.90;;;;;;5043914;28;20066;-68
2021/11/24 11:56:45;;;;;;;35.35;8.00;;;20.40;99.90;;;;;;5041444;28;20021;-68
2021/11/24 11:59:21;;;;;;;19.08;5.97;;;20.40;99.90;;;;;;5047767;28;20036;-68
2021/11/24 12:01:53;;;;;;;30.13;7.43;;;20.40;99.90;;;;;;5040113;28;20021;-69
2021/11/24 12:04:29;;;;;;;25.70;7.03;;;20.50;99.90;;;;;;5038172;28;20049;-68
2021/11/24 12:06:56;;;;;;;29.52;7.22;;;20.40;99.90;;;;;;5048133;28;20048;-68
2021/11/24 12:09:29;;;;;;;31.42;7.60;;;20.40;99.90;;;;;;5038853;28;20026;-68
2021/11/24 12:12:05;;;;;;;28.08;6.60;;;20.40;99.90;;;;;;5044343;28;20013;-68
2021/11/24 12:14:43;;;;;;;37.00;7.85;;;20.40;99.90;;;;;;5043094;28;20038;-68
2021/11/24 12:17:30;;;;;;;31.90;7.20;;;20.40;99.90;;;;;;5042397;28;20108;-68
2021/11/24 12:20:15;;;;;;;21.10;7.20;;;20.40;99.90;;;;;;5053137;28;20029;-69
2021/11/24 12:22:47;;;;;;;21.30;6.45;;;20.40;99.90;;;;;;5046787;28;20037;-68
2021/11/24 12:25:21;;;;;;;26.45;7.32;;;20.40;99.90;;;;;;5057604;28;20063;-68
2021/11/24 12:27:57;;;;;;;40.70;8.35;;;20.40;99.90;;;;;;5040019;28;20021;-68
2021/11/24 12:30:37;;;;;;;25.50;7.57;;;20.40;99.90;;;;;;5048154;28;20029;-68
2021/11/24 12:33:07;;;;;;;24.33;7.28;;;20.40;99.90;;;;;;5041594;28;20084;-68
2021/11/24 12:35:40;;;;;;;24.27;7.05;;;20.40;99.90;;;;;;5043332;28;20025;-68
2021/11/24 12:38:08;;;;;;;23.95;7.53;;;20.40;99.90;;;;;;5037808;28;20642;-68
2021/11/24 12:40:38;;;;;;;24.52;7.50;;;20.40;99.90;;;;;;5041384;28;20116;-68
2021/11/24 12:43:12;;;;;;;21.25;7.55;;;20.40;99.90;;;;;;5043975;28;20041;-68
2021/11/24 12:45:40;;;;;;;22.40;6.93;;;20.40;99.90;;;;;;5056683;28;20394;-68
2021/11/24 12:48:08;;;;;;;23.83;7.13;;;20.40;99.90;;;;;;5046712;28;20126;-68